Time;durP1;ratioP1;P1;durP2;ratioP2;P2;SDS_P1;SDS_P2;PMS_P1;PMS_P2;Temp;Humidity;BMP_temperature;BMP_pressure;BME280_temperature;BME280_humidity;BME280_pressure;Samples;Min_cycle;Max_cycle;Signal;HPM_P1;HPM_P2
2023/04/05 00:01:11;;;;;;;12.27;7.53;;;;;;;-150.27;100.00;61272.81;5056459;29;20036;-77
2023/04/05 00:03:42;;;;;;;12.67;8.57;;;;;;;-150.27;100.00;61272.81;5055864;29;20132;-77
2023/04/05 00:06:15;;;;;;;14.90;8.10;;;;;;;-150.27;100.00;61272.81;5055425;29;20178;-78
2023/04/05 00:08:48;;;;;;;13.43;6.77;;;;;;;-150.27;100.00;61272.81;5056295;29;20124;-77
2023/04/05 00:11:24;;;;;;;15.97;7.73;;;;;;;-150.27;100.00;61272.81;5033516;29;20034;-78
2023/04/05 00:13:58;;;;;;;12.37;7.73;;;;;;;-150.27;100.00;61272.81;5037221;29;20052;-78
2023/04/05 00:16:30;;;;;;;16.48;7.45;;;;;;;-150.27;100.00;61272.81;5035958;29;20026;-77
2023/04/05 00:19:01;;;;;;;13.57;7.47;;;;;;;-150.27;100.00;61272.81;5038331;29;20044;-77
2023/04/05 00:21:33;;;;;;;9.30;6.53;;;;;;;-150.27;100.00;61272.81;5048548;29;20486;-77
2023/04/05 00:24:04;;;;;;;13.57;7.87;;;;;;;-150.27;100.00;61272.81;5036929;29;20081;-77
2023/04/05 00:26:36;;;;;;;16.17;7.73;;;;;;;-150.27;100.00;61272.81;5052631;29;20088;-77
2023/04/05 00:29:07;;;;;;;12.30;8.30;;;;;;;-150.27;100.00;61272.81;5034923;29;20041;-77
2023/04/05 00:31:38;;;;;;;13.43;8.60;;;;;;;-150.27;100.00;61272.81;5026402;29;20120;-77
2023/04/05 00:34:11;;;;;;;12.43;8.70;;;;;;;-150.27;100.00;61272.81;5035351;29;20656;-78
2023/04/05 00:36:42;;;;;;;13.57;7.93;;;;;;;-150.27;100.00;61272.81;5045390;29;20074;-79
2023/04/05 00:39:13;;;;;;;14.27;7.87;;;;;;;-150.27;100.00;61272.81;5048681;29;20072;-78
2023/04/05 00:41:45;;;;;;;16.50;8.77;;;;;;;-150.27;100.00;61272.81;5046527;29;20037;-78
2023/04/05 00:44:16;;;;;;;14.23;9.33;;;;;;;-150.27;100.00;61272.81;5049621;29;20121;-77
2023/04/05 00:46:47;;;;;;;12.37;8.73;;;;;;;-150.27;100.00;61272.81;5023332;29;20042;-77
2023/04/05 00:49:19;;;;;;;18.53;8.10;;;;;;;-150.27;100.00;61272.81;5048855;29;20679;-78
2023/04/05 00:51:51;;;;;;;13.53;8.97;;;;;;;-150.27;100.00;61272.81;5046515;29;20042;-78
2023/04/05 00:54:29;;;;;;;13.17;8.00;;;;;;;-150.27;100.00;61272.81;5051162;29;20034;-78
2023/04/05 00:57:01;;;;;;;13.83;8.47;;;;;;;-150.27;100.00;61272.81;5054339;29;20477;-77
2023/04/05 00:59:32;;;;;;;17.20;8.57;;;;;;;-150.27;100.00;61272.81;5038398;29;20029;-78
2023/04/05 01:02:12;;;;;;;17.03;8.03;;;;;;;-150.27;100.00;61272.81;5042274;23;20055;-76
2023/04/05 01:04:51;;;;;;;12.40;9.03;;;;;;;-150.27;100.00;61272.81;5031787;29;20132;-75
2023/04/05 01:07:28;;;;;;;12.70;8.00;;;;;;;-150.27;100.00;61272.81;5036211;29;20026;-76
2023/04/05 01:09:59;;;;;;;14.67;7.87;;;;;;;-150.27;100.00;61272.81;5035901;29;20114;-75
2023/04/05 01:12:32;;;;;;;12.70;7.80;;;;;;;-150.27;100.00;61272.81;5036840;29;20112;-76
2023/04/05 01:15:04;;;;;;;11.50;8.73;;;;;;;-150.27;100.00;61272.81;5036007;29;20018;-76
2023/04/05 01:17:37;;;;;;;13.30;8.00;;;;;;;-150.27;100.00;61272.81;5035461;29;20515;-76
2023/04/05 01:20:10;;;;;;;11.73;7.90;;;;;;;-150.27;100.00;61272.81;5035012;29;20033;-76
2023/04/05 01:23:03;;;;;;;15.03;7.87;;;;;;;-150.27;100.00;61272.81;5035364;29;20565;-76
2023/04/05 01:25:48;;;;;;;13.77;7.80;;;;;;;-150.27;100.00;61272.81;5035704;29;20068;-75
2023/04/05 01:28:43;;;;;;;16.08;8.57;;;;;;;-150.27;100.00;61272.81;5048054;29;20064;-76
2023/04/05 01:31:42;;;;;;;14.37;9.03;;;;;;;-150.27;100.00;61272.81;5021338;29;20025;-76
2023/04/05 01:34:29;;;;;;;11.10;8.83;;;;;;;-150.27;100.00;61272.81;5034850;29;20025;-75
2023/04/05 01:37:07;;;;;;;14.83;8.47;;;;;;;-150.27;100.00;61272.81;5035140;29;20451;-76
2023/04/05 01:39:39;;;;;;;11.60;7.93;;;;;;;-150.27;100.00;61272.81;5034898;29;20034;-76
2023/04/05 01:42:10;;;;;;;10.60;8.27;;;;;;;-150.27;100.00;61272.81;5035232;29;20044;-76
2023/04/05 01:44:41;;;;;;;15.03;7.97;;;;;;;-150.27;100.00;61272.81;5034904;29;20101;-76
2023/04/05 01:47:13;;;;;;;12.63;7.77;;;;;;;-150.27;100.00;61272.81;5034570;29;20033;-76
2023/04/05 01:49:44;;;;;;;12.93;8.43;;;;;;;-150.27;100.00;61272.81;5033909;29;20110;-75
2023/04/05 01:52:15;;;;;;;16.30;8.27;;;;;;;-150.27;100.00;61272.81;5034847;29;20944;-76
2023/04/05 01:54:46;;;;;;;11.57;8.10;;;;;;;-150.27;100.00;61272.81;5033407;29;20043;-76
2023/04/05 01:57:18;;;;;;;12.67;7.80;;;;;;;-150.27;100.00;61272.81;5018351;29;20746;-76
2023/04/05 01:59:49;;;;;;;14.60;9.30;;;;;;;-150.27;100.00;61272.81;5034807;29;20513;-76
2023/04/05 02:02:20;;;;;;;13.27;8.67;;;;;;;-150.27;100.00;61272.81;5034137;29;20054;-76
2023/04/05 02:04:52;;;;;;;13.03;9.03;;;;;;;-150.27;100.00;61272.81;5032686;29;20030;-77
2023/04/05 02:07:25;;;;;;;14.57;8.83;;;;;;;-150.27;100.00;61272.81;5017198;29;20036;-76
2023/04/05 02:09:57;;;;;;;14.47;8.63;;;;;;;-150.27;100.00;61272.81;5034296;29;20075;-76
2023/04/05 02:12:29;;;;;;;14.00;7.80;;;;;;;-150.27;100.00;61272.81;5034619;29;20279;-76
2023/04/05 02:15:00;;;;;;;12.40;8.37;;;;;;;-150.27;100.00;61272.81;5034485;29;20137;-76
2023/04/05 02:17:38;;;;;;;13.40;9.57;;;;;;;-150.27;100.00;61272.81;5034649;29;20682;-76
2023/04/05 02:20:13;;;;;;;16.10;8.33;;;;;;;-150.27;100.00;61272.81;5032024;29;20362;-76
2023/04/05 02:22:45;;;;;;;11.33;8.20;;;;;;;-150.27;100.00;61272.81;5034469;29;20165;-76
2023/04/05 02:25:16;;;;;;;15.80;8.47;;;;;;;-150.27;100.00;61272.81;5034023;29;20030;-76
2023/04/05 02:27:47;;;;;;;14.80;8.60;;;;;;;-150.27;100.00;61272.81;5034454;29;20562;-76
2023/04/05 02:30:19;;;;;;;15.07;8.10;;;;;;;-150.27;100.00;61272.81;5034468;29;20480;-77
2023/04/05 02:32:51;;;;;;;13.13;8.63;;;;;;;-150.27;100.00;61272.81;5034072;29;20041;-77
2023/04/05 02:35:22;;;;;;;13.53;8.40;;;;;;;-150.27;100.00;61272.81;5033361;29;20109;-77
2023/04/05 02:37:53;;;;;;;13.10;8.37;;;;;;;-150.27;100.00;61272.81;5033945;29;20041;-77
2023/04/05 02:40:25;;;;;;;16.83;8.23;;;;;;;-150.27;100.00;61272.81;5034190;29;20038;-77
2023/04/05 02:42:56;;;;;;;14.83;8.30;;;;;;;-150.27;100.00;61272.81;5034401;29;20038;-77
2023/04/05 02:45:27;;;;;;;14.00;8.17;;;;;;;-150.27;100.00;61272.81;5041837;29;20116;-77
2023/04/05 02:47:59;;;;;;;10.83;8.00;;;;;;;-150.27;100.00;61272.81;5041241;29;20595;-74
2023/04/05 02:50:30;;;;;;;13.70;8.13;;;;;;;-150.27;100.00;61272.81;5033097;29;20044;-76
2023/04/05 02:53:01;;;;;;;13.40;7.87;;;;;;;-150.27;100.00;61272.81;5034125;29;20034;-77
2023/04/05 02:55:33;;;;;;;17.47;8.70;;;;;;;-150.27;100.00;61272.81;5034334;29;20154;-76
2023/04/05 02:58:04;;;;;;;13.13;8.73;;;;;;;-150.27;100.00;61272.81;5033588;29;20502;-76
2023/04/05 03:00:35;;;;;;;12.33;9.07;;;;;;;-150.27;100.00;61272.81;5018072;29;20025;-76
2023/04/05 03:03:06;;;;;;;13.37;8.00;;;;;;;-150.27;100.00;61272.81;5033169;29;20054;-76
2023/04/05 03:05:38;;;;;;;12.63;7.73;;;;;;;-150.27;100.00;61272.81;5016923;29;20121;-76
2023/04/05 03:08:17;;;;;;;12.57;7.60;;;;;;;-150.27;100.00;61272.81;5033709;29;20427;-76
2023/04/05 03:10:53;;;;;;;13.23;8.30;;;;;;;-150.27;100.00;61272.81;5017511;29;20030;-76
2023/04/05 03:13:24;;;;;;;15.20;8.50;;;;;;;-150.27;100.00;61272.81;5032696;29;20030;-76
2023/04/05 03:15:56;;;;;;;13.67;8.40;;;;;;;-150.27;100.00;61272.81;5033554;29;20075;-76
2023/04/05 03:18:28;;;;;;;11.00;7.63;;;;;;;-150.27;100.00;61272.81;5033097;29;20026;-76
2023/04/05 03:20:59;;;;;;;13.20;9.43;;;;;;;-150.27;100.00;61272.81;5036704;29;20483;-76
2023/04/05 03:23:32;;;;;;;14.90;9.43;;;;;;;-150.27;100.00;61272.81;5036335;29;20056;-76
2023/04/05 03:26:03;;;;;;;11.50;8.10;;;;;;;-150.27;100.00;61272.81;5035707;29;20394;-76
2023/04/05 03:28:34;;;;;;;18.63;10.23;;;;;;;-150.27;100.00;61272.81;5037106;29;20037;-76
2023/04/05 03:31:06;;;;;;;11.70;8.20;;;;;;;-150.27;100.00;61272.81;5035971;29;20077;-76
2023/04/05 03:33:37;;;;;;;17.40;9.37;;;;;;;-150.27;100.00;61272.81;5035480;29;20036;-76
2023/04/05 03:36:08;;;;;;;17.33;8.47;;;;;;;-150.27;100.00;61272.81;5037527;29;20037;-76
2023/04/05 03:38:43;;;;;;;11.83;9.67;;;;;;;-150.27;100.00;61272.81;5037331;29;20033;-77
2023/04/05 03:41:15;;;;;;;13.33;8.60;;;;;;;-150.27;100.00;61272.81;5037103;29;20104;-76
2023/04/05 03:43:47;;;;;;;11.70;8.00;;;;;;;-150.27;100.00;61272.81;5036911;29;20128;-76
2023/04/05 03:46:18;;;;;;;15.03;9.47;;;;;;;-150.27;100.00;61272.81;5037367;29;20094;-76
2023/04/05 03:48:50;;;;;;;13.53;9.30;;;;;;;-150.27;100.00;61272.81;5036853;29;20042;-76
2023/04/05 03:51:21;;;;;;;13.10;8.07;;;;;;;-150.27;100.00;61272.81;5034872;29;20076;-76
2023/04/05 03:53:53;;;;;;;17.83;9.43;;;;;;;-150.27;100.00;61272.81;5037465;29;20770;-76
2023/04/05 03:56:24;;;;;;;14.07;9.57;;;;;;;-150.27;100.00;61272.81;5036531;29;20491;-75
2023/04/05 03:58:56;;;;;;;13.27;8.47;;;;;;;-150.27;100.00;61272.81;5020812;29;20095;-76
2023/04/05 04:01:27;;;;;;;11.60;8.03;;;;;;;-150.27;100.00;61272.81;5036042;29;20054;-76
2023/04/05 04:04:00;;;;;;;11.67;8.07;;;;;;;-150.27;100.00;61272.81;5035581;29;20572;-76
2023/04/05 04:06:31;;;;;;;12.27;8.83;;;;;;;-150.27;100.00;61272.81;5036866;29;20506;-76
2023/04/05 04:09:04;;;;;;;15.23;8.30;;;;;;;-150.27;100.00;61272.81;5036331;29;20030;-76
2023/04/05 04:11:35;;;;;;;9.80;7.77;;;;;;;-150.27;100.00;61272.81;5036607;29;20399;-76
2023/04/05 04:14:07;;;;;;;12.50;8.03;;;;;;;-150.27;100.00;61272.81;5036848;29;20282;-76
2023/04/05 04:16:39;;;;;;;13.20;8.43;;;;;;;-150.27;100.00;61272.81;5036230;29;20041;-76
2023/04/05 04:19:10;;;;;;;15.70;8.77;;;;;;;-150.27;100.00;61272.81;5036196;29;20029;-76
2023/04/05 04:21:50;;;;;;;18.83;8.87;;;;;;;-150.27;100.00;61272.81;5036495;29;20109;-76
2023/04/05 04:24:22;;;;;;;15.23;8.83;;;;;;;-150.27;100.00;61272.81;5036491;29;20170;-75
2023/04/05 04:26:53;;;;;;;16.07;8.73;;;;;;;-150.27;100.00;61272.81;5036889;29;20108;-76
2023/04/05 04:29:29;;;;;;;15.80;9.33;;;;;;;-150.27;100.00;61272.81;5019379;29;20036;-75
2023/04/05 04:32:01;;;;;;;15.80;8.37;;;;;;;-150.27;100.00;61272.81;5035851;29;20038;-76
2023/04/05 04:34:33;;;;;;;16.90;7.97;;;;;;;-150.27;100.00;61272.81;5035438;29;20790;-75
2023/04/05 04:37:06;;;;;;;12.97;8.20;;;;;;;-150.27;100.00;61272.81;5035914;29;20034;-75
2023/04/05 04:39:38;;;;;;;22.43;7.97;;;;;;;-150.27;100.00;61272.81;5036235;29;20309;-76
2023/04/05 04:42:10;;;;;;;17.47;9.03;;;;;;;-150.27;100.00;61272.81;5036032;29;20829;-76
2023/04/05 04:44:42;;;;;;;14.87;8.27;;;;;;;-150.27;100.00;61272.81;5036702;29;20283;-76
2023/04/05 04:47:16;;;;;;;14.00;8.50;;;;;;;-150.27;100.00;61272.81;5019292;29;20286;-76
2023/04/05 04:49:47;;;;;;;15.77;8.77;;;;;;;-150.27;100.00;61272.81;5035724;29;20049;-76
2023/04/05 04:52:19;;;;;;;16.17;10.03;;;;;;;-150.27;100.00;61272.81;5035692;29;20101;-76
2023/04/05 04:54:51;;;;;;;15.87;9.77;;;;;;;-150.27;100.00;61272.81;5036484;29;20030;-77
2023/04/05 04:57:24;;;;;;;13.57;9.93;;;;;;;-150.27;100.00;61272.81;5018770;29;20030;-77
2023/04/05 04:59:55;;;;;;;17.87;12.53;;;;;;;-150.27;100.00;61272.81;5035853;29;20289;-77
2023/04/05 05:02:27;;;;;;;20.20;13.37;;;;;;;-150.27;100.00;61272.81;5035468;29;20303;-77
2023/04/05 05:04:58;;;;;;;15.80;10.87;;;;;;;-150.27;100.00;61272.81;5034181;29;20037;-77
2023/04/05 05:07:30;;;;;;;17.07;10.43;;;;;;;-150.27;100.00;61272.81;5035794;29;20037;-76
2023/04/05 05:10:02;;;;;;;17.50;10.57;;;;;;;-150.27;100.00;61272.81;5035904;29;20597;-77
2023/04/05 05:12:33;;;;;;;14.97;10.60;;;;;;;-150.27;100.00;61272.81;5035236;29;20491;-77
2023/04/05 05:15:05;;;;;;;17.57;10.07;;;;;;;-150.27;100.00;61272.81;5035698;29;20299;-77
2023/04/05 05:17:38;;;;;;;15.07;10.23;;;;;;;-150.27;100.00;61272.81;5019189;29;20045;-77
2023/04/05 05:20:10;;;;;;;14.50;8.23;;;;;;;-150.27;100.00;61272.81;5033676;29;20114;-77
2023/04/05 05:22:42;;;;;;;12.90;9.07;;;;;;;-150.27;100.00;61272.81;5034867;29;20299;-76
2023/04/05 05:25:13;;;;;;;13.00;9.20;;;;;;;-150.27;100.00;61272.81;5034723;29;20297;-76
2023/04/05 05:27:48;;;;;;;14.90;8.17;;;;;;;-150.27;100.00;61272.81;5034828;29;20037;-76
2023/04/05 05:30:20;;;;;;;16.07;8.97;;;;;;;-150.27;100.00;61272.81;5018240;29;20417;-76
2023/04/05 05:32:51;;;;;;;16.57;9.23;;;;;;;-150.27;100.00;61272.81;5034951;29;20278;-77
2023/04/05 05:35:23;;;;;;;14.23;9.37;;;;;;;-150.27;100.00;61272.81;5017605;29;20034;-76
2023/04/05 05:37:54;;;;;;;18.07;10.23;;;;;;;-150.27;100.00;61272.81;5034800;29;20113;-76
2023/04/05 05:40:25;;;;;;;12.80;9.40;;;;;;;-150.27;100.00;61272.81;5035175;29;20045;-76
2023/04/05 05:42:57;;;;;;;19.03;10.77;;;;;;;-150.27;100.00;61272.81;5017508;29;20117;-76
2023/04/05 05:45:28;;;;;;;18.70;10.00;;;;;;;-150.27;100.00;61272.81;5034890;29;20452;-74
2023/04/05 05:47:59;;;;;;;18.03;10.17;;;;;;;-150.27;100.00;61272.81;5034362;29;20034;-75
2023/04/05 05:50:31;;;;;;;15.63;10.23;;;;;;;-150.27;100.00;61272.81;5033707;29;20038;-75
2023/04/05 05:53:03;;;;;;;17.23;9.83;;;;;;;-150.27;100.00;61272.81;5034279;29;20031;-76
2023/04/05 05:55:35;;;;;;;19.20;9.80;;;;;;;-150.27;100.00;61272.81;5032298;29;20314;-76
2023/04/05 05:58:06;;;;;;;16.00;10.53;;;;;;;-150.27;100.00;61272.81;5008157;29;20399;-76
2023/04/05 06:00:38;;;;;;;15.50;9.67;;;;;;;-150.27;100.00;61272.81;5022128;29;20314;-75
2023/04/05 06:03:09;;;;;;;20.80;10.47;;;;;;;-150.27;100.00;61272.81;5022388;29;20364;-74
2023/04/05 06:05:49;;;;;;;16.40;10.30;;;;;;;-150.27;100.00;61272.81;5022737;29;20040;-75
2023/04/05 06:08:21;;;;;;;17.80;10.53;;;;;;;-150.27;100.00;61272.81;5021982;29;20025;-75
2023/04/05 06:10:54;;;;;;;16.97;10.37;;;;;;;-150.27;100.00;61272.81;5022751;29;20572;-75
2023/04/05 06:13:25;;;;;;;18.67;10.73;;;;;;;-150.27;100.00;61272.81;5021605;29;20037;-75
2023/04/05 06:16:00;;;;;;;21.73;12.03;;;;;;;-150.27;100.00;61272.81;5022123;29;20780;-75
2023/04/05 06:18:31;;;;;;;22.67;11.82;;;;;;;-150.27;100.00;61272.81;5019999;29;20057;-74
2023/04/05 06:21:02;;;;;;;18.87;10.93;;;;;;;-150.27;100.00;61272.81;5020458;29;20120;-74
2023/04/05 06:23:34;;;;;;;15.00;10.30;;;;;;;-150.27;100.00;61272.81;5021191;29;20034;-75
2023/04/05 06:26:05;;;;;;;12.07;9.47;;;;;;;-150.27;100.00;61272.81;5033517;29;20041;-75
2023/04/05 06:28:36;;;;;;;14.23;9.57;;;;;;;-150.27;100.00;61272.81;5026740;29;20029;-76
2023/04/05 06:31:08;;;;;;;19.00;9.63;;;;;;;-150.27;100.00;61272.81;5020897;29;20097;-76
2023/04/05 06:33:39;;;;;;;16.80;10.33;;;;;;;-150.27;100.00;61272.81;5021649;29;20888;-75
2023/04/05 06:36:11;;;;;;;14.03;10.37;;;;;;;-150.27;100.00;61272.81;5023085;29;20124;-76
2023/04/05 06:38:42;;;;;;;19.97;10.77;;;;;;;-150.27;100.00;61272.81;5022025;29;20042;-76
2023/04/05 06:41:13;;;;;;;16.97;10.03;;;;;;;-150.27;100.00;61272.81;5026142;29;20625;-76
2023/04/05 06:43:45;;;;;;;19.73;10.27;;;;;;;-150.27;100.00;61272.81;5021663;29;20034;-75
2023/04/05 06:46:16;;;;;;;14.13;11.30;;;;;;;-150.27;100.00;61272.81;5022427;29;20517;-77
2023/04/05 06:48:48;;;;;;;27.73;11.87;;;;;;;-150.27;100.00;61272.81;5020616;29;20077;-76
2023/04/05 06:51:20;;;;;;;14.40;10.47;;;;;;;-150.27;100.00;61272.81;5020942;29;20041;-77
2023/04/05 06:53:51;;;;;;;16.63;9.93;;;;;;;-150.27;100.00;61272.81;5026613;29;20567;-77
2023/04/05 06:56:22;;;;;;;15.70;11.00;;;;;;;-150.27;100.00;61272.81;5025533;29;20252;-77
2023/04/05 06:58:54;;;;;;;23.60;12.17;;;;;;;-150.27;100.00;61272.81;5025518;29;20065;-77
2023/04/05 07:01:26;;;;;;;16.43;10.97;;;;;;;-150.27;100.00;61272.81;5031281;29;20038;-76
2023/04/05 07:03:57;;;;;;;18.57;10.90;;;;;;;-150.27;100.00;61272.81;5025329;29;20029;-75
2023/04/05 07:06:28;;;;;;;18.43;9.43;;;;;;;-150.27;100.00;61272.81;5025587;29;20905;-75
2023/04/05 07:09:00;;;;;;;20.77;10.23;;;;;;;-150.27;100.00;61272.81;5026962;29;20513;-75
2023/04/05 07:11:32;;;;;;;22.20;12.30;;;;;;;-150.27;100.00;61272.81;5024963;29;20125;-75
2023/04/05 07:14:03;;;;;;;20.10;10.97;;;;;;;-150.27;100.00;61272.81;5037420;29;20128;-75
2023/04/05 07:16:34;;;;;;;22.57;12.10;;;;;;;-150.27;100.00;61272.81;5024686;29;20042;-76
2023/04/05 07:19:07;;;;;;;16.37;10.13;;;;;;;-150.27;100.00;61272.81;5023295;29;20278;-75
2023/04/05 07:21:38;;;;;;;19.30;10.80;;;;;;;-150.27;100.00;61272.81;5024339;29;20037;-75
2023/04/05 07:24:09;;;;;;;19.53;10.27;;;;;;;-150.27;100.00;61272.81;5014194;29;20037;-75
2023/04/05 07:26:41;;;;;;;16.47;10.37;;;;;;;-150.27;100.00;61272.81;5024178;29;21129;-75
2023/04/05 07:29:12;;;;;;;18.63;9.07;;;;;;;-150.27;100.00;61272.81;5024714;29;20044;-75
2023/04/05 07:31:43;;;;;;;14.60;9.50;;;;;;;-150.27;100.00;61272.81;5024614;29;20142;-76
2023/04/05 07:34:15;;;;;;;16.07;9.67;;;;;;;-150.27;100.00;61272.81;5022952;29;20406;-75
2023/04/05 07:36:46;;;;;;;12.40;8.67;;;;;;;-150.27;100.00;61272.81;5025203;29;20041;-75
2023/04/05 07:39:18;;;;;;;16.63;9.70;;;;;;;-150.27;100.00;61272.81;5024239;29;20459;-75
2023/04/05 07:41:50;;;;;;;14.50;8.73;;;;;;;-150.27;100.00;61272.81;5025010;29;20122;-75
2023/04/05 07:44:21;;;;;;;19.73;10.63;;;;;;;-150.27;100.00;61272.81;5023964;29;20543;-75
2023/04/05 07:46:53;;;;;;;16.23;10.47;;;;;;;-150.27;100.00;61272.81;5024596;29;20279;-75
2023/04/05 07:49:27;;;;;;;13.90;9.13;;;;;;;-150.27;100.00;61272.81;5022765;29;20092;-75
2023/04/05 07:51:58;;;;;;;16.83;9.30;;;;;;;-150.27;100.00;61272.81;5021749;29;20081;-73
2023/04/05 07:54:32;;;;;;;17.07;9.53;;;;;;;-150.27;100.00;61272.81;5024330;29;20120;-74
2023/04/05 07:57:04;;;;;;;13.53;8.80;;;;;;;-150.27;100.00;61272.81;5022990;29;20434;-73
2023/04/05 07:59:35;;;;;;;13.10;9.20;;;;;;;-150.27;100.00;61272.81;5023964;29;20091;-74
2023/04/05 08:02:07;;;;;;;11.87;7.97;;;;;;;-150.27;100.00;61272.81;5021327;29;20475;-74
2023/04/05 08:04:38;;;;;;;16.60;9.77;;;;;;;-150.27;100.00;61272.81;5022458;29;20061;-74
2023/04/05 08:07:09;;;;;;;17.90;8.53;;;;;;;-150.27;100.00;61272.81;5024063;29;20030;-74
2023/04/05 08:09:41;;;;;;;14.37;7.67;;;;;;;-150.27;100.00;61272.81;5023488;29;20269;-75
2023/04/05 08:12:12;;;;;;;13.43;7.80;;;;;;;-150.27;100.00;61272.81;5020779;29;20026;-75
2023/04/05 08:14:43;;;;;;;12.77;7.53;;;;;;;-150.27;100.00;61272.81;5022593;29;20038;-75
2023/04/05 08:17:15;;;;;;;12.30;6.90;;;;;;;-150.27;100.00;61272.81;5023912;29;20037;-74
2023/04/05 08:19:46;;;;;;;11.20;6.27;;;;;;;-150.27;100.00;61272.81;5021647;29;20038;-75
2023/04/05 08:22:18;;;;;;;9.13;6.10;;;;;;;-150.27;100.00;61272.81;5022633;29;20056;-75
2023/04/05 08:24:49;;;;;;;11.80;6.47;;;;;;;-150.27;100.00;61272.81;5015699;29;20045;-75
2023/04/05 08:27:21;;;;;;;9.80;7.07;;;;;;;-150.27;100.00;61272.81;5023235;29;20502;-75
2023/04/05 08:29:52;;;;;;;15.93;7.17;;;;;;;-150.27;100.00;61272.81;5022830;29;20045;-75
2023/04/05 08:32:23;;;;;;;10.60;6.27;;;;;;;-150.27;100.00;61272.81;5023183;29;20034;-75
2023/04/05 08:34:54;;;;;;;11.63;6.67;;;;;;;-150.27;100.00;61272.81;5028810;29;20041;-74
2023/04/05 08:37:26;;;;;;;8.97;5.97;;;;;;;-150.27;100.00;61272.81;5011857;29;20045;-74
2023/04/05 08:39:58;;;;;;;9.33;6.70;;;;;;;-150.27;100.00;61272.81;5024267;29;20046;-74
2023/04/05 08:42:35;;;;;;;13.63;6.40;;;;;;;-150.27;100.00;61272.81;5024383;29;20033;-74
2023/04/05 08:45:09;;;;;;;8.20;6.77;;;;;;;-150.27;100.00;61272.81;5024144;29;20033;-74
2023/04/05 08:47:41;;;;;;;16.33;7.50;;;;;;;-150.27;100.00;61272.81;5025266;29;20439;-75
2023/04/05 08:50:13;;;;;;;9.27;7.23;;;;;;;-150.27;100.00;61272.81;5026797;29;20057;-74
2023/04/05 08:52:48;;;;;;;8.57;6.05;;;;;;;-150.27;100.00;61272.81;5021559;29;20030;-74
2023/04/05 08:55:23;;;;;;;7.60;5.72;;;;;;;-150.27;100.00;61272.81;5024730;29;20399;-74
2023/04/05 08:57:58;;;;;;;7.68;5.82;;;;;;;-150.27;100.00;61272.81;5025318;29;20456;-74
2023/04/05 09:00:29;;;;;;;9.77;6.57;;;;;;;-150.27;100.00;61272.81;5023522;29;20676;-72
2023/04/05 09:03:03;;;;;;;10.10;7.13;;;;;;;-150.27;100.00;61272.81;5023896;29;20054;-74
2023/04/05 09:05:38;;;;;;;9.45;6.97;;;;;;;-150.27;100.00;61272.81;5026809;29;20033;-74
2023/04/05 09:08:10;;;;;;;10.05;7.13;;;;;;;-150.27;100.00;61272.81;5022489;29;20025;-73
2023/04/05 09:10:42;;;;;;;13.43;8.38;;;;;;;-150.27;100.00;61272.81;5034592;29;20602;-74
2023/04/05 09:13:14;;;;;;;10.88;7.25;;;;;;;-150.27;100.00;61272.81;5023467;29;20034;-72
2023/04/05 09:15:45;;;;;;;10.15;7.30;;;;;;;-150.27;100.00;61272.81;5019304;29;20034;-72
2023/04/05 09:18:17;;;;;;;10.20;7.20;;;;;;;-150.27;100.00;61272.81;5023618;29;20030;-73
2023/04/05 09:20:48;;;;;;;8.98;6.18;;;;;;;-150.27;100.00;61272.81;5024222;29;20061;-74
2023/04/05 09:23:20;;;;;;;8.55;5.95;;;;;;;-150.27;100.00;61272.81;5023248;29;20038;-74
2023/04/05 09:25:51;;;;;;;7.22;5.60;;;;;;;-150.27;100.00;61272.81;5019220;29;20034;-73
2023/04/05 09:28:32;;;;;;;9.05;5.65;;;;;;;-150.27;100.00;61272.81;5024544;29;20057;-73
2023/04/05 09:31:04;;;;;;;10.20;6.63;;;;;;;-150.27;100.00;61272.81;5024649;29;20042;-74
2023/04/05 09:33:38;;;;;;;9.27;5.70;;;;;;;-150.27;100.00;61272.81;5024083;29;20513;-74
2023/04/05 09:36:10;;;;;;;11.18;6.15;;;;;;;-150.27;100.00;61272.81;5023286;29;20116;-74
2023/04/05 09:38:42;;;;;;;7.00;5.15;;;;;;;-150.27;100.00;61272.81;5025084;29;20044;-74
2023/04/05 09:41:14;;;;;;;6.60;5.07;;;;;;;-150.27;100.00;61272.81;5024654;29;20174;-74
2023/04/05 09:43:46;;;;;;;8.32;5.22;;;;;;;-150.27;100.00;61272.81;5023818;29;20038;-74
2023/04/05 09:46:32;;;;;;;8.63;4.85;;;;;;;-150.27;100.00;61272.81;5022076;29;20042;-74
2023/04/05 09:49:06;;;;;;;7.05;4.93;;;;;;;-150.27;100.00;61272.81;5021890;29;20102;-75
2023/04/05 09:51:38;;;;;;;9.90;5.82;;;;;;;-150.27;100.00;61272.81;5024141;29;20034;-75
2023/04/05 09:54:10;;;;;;;9.10;5.30;;;;;;;-150.27;100.00;61272.81;5024223;29;20034;-73
2023/04/05 09:56:53;;;;;;;8.48;6.63;;;;;;;-150.27;100.00;61272.81;5023882;29;20042;-74
2023/04/05 09:59:25;;;;;;;9.25;6.07;;;;;;;-150.27;100.00;61272.81;5022657;29;20026;-74
2023/04/05 10:01:56;;;;;;;10.05;6.07;;;;;;;-150.27;100.00;61272.81;5021281;29;20069;-75
2023/04/05 10:04:45;;;;;;;9.93;6.40;;;;;;;-150.27;100.00;61272.81;5021126;29;20680;-75
2023/04/05 10:07:20;;;;;;;8.27;6.10;;;;;;;-150.27;100.00;61272.81;5021276;29;20034;-74
2023/04/05 10:09:51;;;;;;;10.20;6.97;;;;;;;-150.27;100.00;61272.81;5019453;29;20110;-74
2023/04/05 10:12:27;;;;;;;11.30;6.30;;;;;;;-150.27;100.00;61272.81;5019178;29;20449;-74
2023/04/05 10:14:58;;;;;;;12.50;6.07;;;;;;;-150.27;100.00;61272.81;5017641;29;20022;-75
2023/04/05 10:17:37;;;;;;;7.32;6.22;;;;;;;-150.27;100.00;61272.81;5018845;29;20037;-74
2023/04/05 10:20:09;;;;;;;9.13;6.25;;;;;;;-150.27;100.00;61272.81;5019294;29;20068;-74
2023/04/05 10:22:56;;;;;;;9.95;6.88;;;;;;;-150.27;100.00;61272.81;5020228;29;20452;-74
2023/04/05 10:25:51;;;;;;;10.30;6.13;;;;;;;-150.27;100.00;61272.81;5020579;29;20479;-75
2023/04/05 10:28:34;;;;;;;9.02;5.80;;;;;;;-150.27;100.00;61272.81;5002520;29;20034;-74
2023/04/05 10:31:26;;;;;;;9.45;7.20;;;;;;;-150.27;100.00;61272.81;5019419;29;20045;-74
2023/04/05 10:34:18;;;;;;;9.10;6.63;;;;;;;-150.27;100.00;61272.81;5020569;29;20061;-75
2023/04/05 10:37:00;;;;;;;8.50;6.60;;;;;;;-150.27;100.00;61272.81;5026627;29;20279;-74
2023/04/05 10:39:41;;;;;;;10.15;6.10;;;;;;;-150.27;100.00;61272.81;5031745;29;20038;-74
2023/04/05 10:42:26;;;;;;;8.98;7.28;;;;;;;-150.27;100.00;61272.81;5031543;29;20459;-74
2023/04/05 10:45:05;;;;;;;8.98;7.85;;;;;;;-150.27;100.00;61272.81;5031122;29;20049;-75
2023/04/05 10:47:49;;;;;;;10.82;7.35;;;;;;;-150.27;100.00;61272.81;5029867;29;20045;-75
2023/04/05 10:50:24;;;;;;;8.20;6.93;;;;;;;-150.27;100.00;61272.81;5031543;29;20038;-73
2023/04/05 10:52:58;;;;;;;9.98;6.90;;;;;;;-150.27;100.00;61272.81;5032215;29;20037;-74
2023/04/05 10:55:30;;;;;;;8.52;6.93;;;;;;;-150.27;100.00;61272.81;5031502;29;20106;-74
2023/04/05 10:58:02;;;;;;;9.60;6.78;;;;;;;-150.27;100.00;61272.81;5031800;29;20045;-74
2023/04/05 11:00:34;;;;;;;8.18;7.15;;;;;;;-150.27;100.00;61272.81;5031839;29;20033;-74
2023/04/05 11:03:05;;;;;;;10.50;7.22;;;;;;;-150.27;100.00;61272.81;5032373;29;20426;-73
2023/04/05 11:05:38;;;;;;;7.28;6.25;;;;;;;-150.27;100.00;61272.81;5033453;29;20538;-75
2023/04/05 11:08:11;;;;;;;9.10;7.07;;;;;;;-150.27;100.00;61272.81;5030832;29;20361;-74
2023/04/05 11:10:51;;;;;;;10.15;7.60;;;;;;;-150.27;100.00;61272.81;5031932;29;20061;-73
2023/04/05 11:13:52;;;;;;;9.63;6.80;;;;;;;-150.27;100.00;61272.81;5032118;29;20026;-74
2023/04/05 11:16:38;;;;;;;11.52;7.65;;;;;;;-150.27;100.00;61272.81;5031838;29;20109;-74
2023/04/05 11:19:09;;;;;;;10.50;7.20;;;;;;;-150.27;100.00;61272.81;5032347;29;20038;-75
2023/04/05 11:21:43;;;;;;;9.80;7.22;;;;;;;-150.27;100.00;61272.81;5033732;29;20583;-74
2023/04/05 11:24:15;;;;;;;9.77;6.93;;;;;;;-150.27;100.00;61272.81;5033213;29;20026;-74
2023/04/05 11:26:47;;;;;;;11.02;8.73;;;;;;;-150.27;100.00;61272.81;5033630;29;20065;-74
2023/04/05 11:29:38;;;;;;;12.38;8.20;;;;;;;-150.27;100.00;61272.81;5032085;29;20463;-74